sensor_id;sensor_type;location;lat;lon;timestamp;temperature;humidity
51739;DHT22;37815;52.692;6.226;2023-06-26T00:01:34;25.70;79.20
51739;DHT22;37815;52.692;6.226;2023-06-26T00:06:35;25.60;79.10
51739;DHT22;37815;52.692;6.226;2023-06-26T00:11:36;25.60;79.10
51739;DHT22;37815;52.692;6.226;2023-06-26T00:16:37;25.60;79.20
51739;DHT22;37815;52.692;6.226;2023-06-26T00:21:37;25.60;79.20
51739;DHT22;37815;52.692;6.226;2023-06-26T00:26:39;25.50;79.20
51739;DHT22;37815;52.692;6.226;2023-06-26T00:31:40;25.50;79.30
51739;DHT22;37815;52.692;6.226;2023-06-26T00:36:41;25.40;79.20
51739;DHT22;37815;52.692;6.226;2023-06-26T00:41:44;25.40;79.30
51739;DHT22;37815;52.692;6.226;2023-06-26T00:46:45;25.40;79.30
51739;DHT22;37815;52.692;6.226;2023-06-26T00:51:46;25.40;79.40
51739;DHT22;37815;52.692;6.226;2023-06-26T00:56:47;25.30;79.40
51739;DHT22;37815;52.692;6.226;2023-06-26T01:01:48;25.30;79.40
51739;DHT22;37815;52.692;6.226;2023-06-26T01:06:50;25.30;79.50
51739;DHT22;37815;52.692;6.226;2023-06-26T01:11:52;25.20;79.40
51739;DHT22;37815;52.692;6.226;2023-06-26T01:16:53;25.20;79.50
51739;DHT22;37815;52.692;6.226;2023-06-26T01:27:35;25.20;79.40
51739;DHT22;37815;52.692;6.226;2023-06-26T01:32:36;25.20;79.50
51739;DHT22;37815;52.692;6.226;2023-06-26T01:37:37;25.20;79.50
51739;DHT22;37815;52.692;6.226;2023-06-26T01:42:37;25.10;79.40
51739;DHT22;37815;52.692;6.226;2023-06-26T01:47:40;25.10;79.50
51739;DHT22;37815;52.692;6.226;2023-06-26T01:52:59;25.00;79.50
51739;DHT22;37815;52.692;6.226;2023-06-26T01:58:02;25.00;79.50
51739;DHT22;37815;52.692;6.226;2023-06-26T02:03:03;25.00;79.50
51739;DHT22;37815;52.692;6.226;2023-06-26T02:08:06;25.00;79.60
51739;DHT22;37815;52.692;6.226;2023-06-26T02:13:07;24.90;79.60
51739;DHT22;37815;52.692;6.226;2023-06-26T02:18:07;24.90;79.60
51739;DHT22;37815;52.692;6.226;2023-06-26T02:23:08;24.90;79.60
51739;DHT22;37815;52.692;6.226;2023-06-26T02:28:08;24.90;79.70
51739;DHT22;37815;52.692;6.226;2023-06-26T02:33:09;24.80;79.70
51739;DHT22;37815;52.692;6.226;2023-06-26T02:38:10;24.80;79.70
51739;DHT22;37815;52.692;6.226;2023-06-26T02:43:10;24.80;79.80
51739;DHT22;37815;52.692;6.226;2023-06-26T02:48:11;24.80;79.70
51739;DHT22;37815;52.692;6.226;2023-06-26T02:53:12;24.70;79.70
51739;DHT22;37815;52.692;6.226;2023-06-26T02:58:13;24.70;79.80
51739;DHT22;37815;52.692;6.226;2023-06-26T03:03:13;24.70;79.70
51739;DHT22;37815;52.692;6.226;2023-06-26T03:08:14;24.70;79.70
51739;DHT22;37815;52.692;6.226;2023-06-26T03:13:15;24.70;79.80
51739;DHT22;37815;52.692;6.226;2023-06-26T03:18:15;24.60;79.80
51739;DHT22;37815;52.692;6.226;2023-06-26T03:23:16;24.60;79.80
51739;DHT22;37815;52.692;6.226;2023-06-26T03:28:17;24.60;79.90
51739;DHT22;37815;52.692;6.226;2023-06-26T03:33:18;24.60;79.90
51739;DHT22;37815;52.692;6.226;2023-06-26T03:38:19;24.60;80.00
51739;DHT22;37815;52.692;6.226;2023-06-26T03:43:19;24.50;80.00
51739;DHT22;37815;52.692;6.226;2023-06-26T03:48:20;24.50;80.00
51739;DHT22;37815;52.692;6.226;2023-06-26T03:53:21;24.50;80.10
51739;DHT22;37815;52.692;6.226;2023-06-26T03:58:21;24.50;80.20
51739;DHT22;37815;52.692;6.226;2023-06-26T04:03:22;24.50;80.20
51739;DHT22;37815;52.692;6.226;2023-06-26T04:08:24;24.50;80.20
51739;DHT22;37815;52.692;6.226;2023-06-26T04:13:26;24.50;80.30
51739;DHT22;37815;52.692;6.226;2023-06-26T04:18:29;24.40;80.30
51739;DHT22;37815;52.692;6.226;2023-06-26T04:23:29;24.40;80.40
51739;DHT22;37815;52.692;6.226;2023-06-26T04:28:32;24.40;80.50
51739;DHT22;37815;52.692;6.226;2023-06-26T04:33:32;24.40;80.50
51739;DHT22;37815;52.692;6.226;2023-06-26T04:38:33;24.40;80.60
51739;DHT22;37815;52.692;6.226;2023-06-26T04:43:34;24.40;80.70
51739;DHT22;37815;52.692;6.226;2023-06-26T04:48:35;24.40;80.80
51739;DHT22;37815;52.692;6.226;2023-06-26T04:53:36;24.40;80.90
51739;DHT22;37815;52.692;6.226;2023-06-26T04:58:36;24.30;81.00
51739;DHT22;37815;52.692;6.226;2023-06-26T05:03:37;24.30;81.00
51739;DHT22;37815;52.692;6.226;2023-06-26T05:08:37;24.30;81.20
51739;DHT22;37815;52.692;6.226;2023-06-26T05:13:38;24.30;81.20
51739;DHT22;37815;52.692;6.226;2023-06-26T05:18:38;24.30;81.20
51739;DHT22;37815;52.692;6.226;2023-06-26T05:23:39;24.20;81.20
51739;DHT22;37815;52.692;6.226;2023-06-26T05:28:40;24.20;81.30
51739;DHT22;37815;52.692;6.226;2023-06-26T05:33:43;24.20;81.40
51739;DHT22;37815;52.692;6.226;2023-06-26T05:38:44;24.20;81.40
51739;DHT22;37815;52.692;6.226;2023-06-26T05:43:45;24.20;81.40
51739;DHT22;37815;52.692;6.226;2023-06-26T05:48:46;24.20;81.40
51739;DHT22;37815;52.692;6.226;2023-06-26T05:53:48;24.20;81.70
51739;DHT22;37815;52.692;6.226;2023-06-26T05:58:50;24.10;82.40
51739;DHT22;37815;52.692;6.226;2023-06-26T06:03:52;23.80;83.00
51739;DHT22;37815;52.692;6.226;2023-06-26T06:08:52;23.60;83.10
51739;DHT22;37815;52.692;6.226;2023-06-26T06:13:53;23.40;82.80
51739;DHT22;37815;52.692;6.226;2023-06-26T06:18:54;23.30;82.50
51739;DHT22;37815;52.692;6.226;2023-06-26T06:23:54;23.30;82.10
51739;DHT22;37815;52.692;6.226;2023-06-26T06:28:55;23.20;81.90
51739;DHT22;37815;52.692;6.226;2023-06-26T06:33:56;23.20;82.00
51739;DHT22;37815;52.692;6.226;2023-06-26T06:38:56;23.10;82.00
51739;DHT22;37815;52.692;6.226;2023-06-26T06:43:57;23.00;82.20
51739;DHT22;37815;52.692;6.226;2023-06-26T06:48:58;23.00;82.30
51739;DHT22;37815;52.692;6.226;2023-06-26T06:53:58;23.00;82.40
51739;DHT22;37815;52.692;6.226;2023-06-26T06:58:59;22.90;82.40
51739;DHT22;37815;52.692;6.226;2023-06-26T07:03:59;22.90;82.40
51739;DHT22;37815;52.692;6.226;2023-06-26T07:09:00;22.80;82.70
51739;DHT22;37815;52.692;6.226;2023-06-26T07:14:01;22.80;82.80
51739;DHT22;37815;52.692;6.226;2023-06-26T07:19:02;22.70;82.80
51739;DHT22;37815;52.692;6.226;2023-06-26T07:24:02;22.70;82.60
51739;DHT22;37815;52.692;6.226;2023-06-26T07:29:03;22.70;82.30
51739;DHT22;37815;52.692;6.226;2023-06-26T07:34:04;22.70;82.30
51739;DHT22;37815;52.692;6.226;2023-06-26T07:39:04;22.70;82.30
51739;DHT22;37815;52.692;6.226;2023-06-26T07:44:05;22.80;82.30
51739;DHT22;37815;52.692;6.226;2023-06-26T07:49:06;22.80;82.10
51739;DHT22;37815;52.692;6.226;2023-06-26T07:54:06;22.90;81.90
51739;DHT22;37815;52.692;6.226;2023-06-26T07:59:07;22.90;82.30
51739;DHT22;37815;52.692;6.226;2023-06-26T08:04:08;22.90;81.60
51739;DHT22;37815;52.692;6.226;2023-06-26T08:09:12;22.80;81.80
51739;DHT22;37815;52.692;6.226;2023-06-26T08:14:15;23.00;81.60
51739;DHT22;37815;52.692;6.226;2023-06-26T08:19:16;23.00;81.60
51739;DHT22;37815;52.692;6.226;2023-06-26T08:24:17;23.00;81.60
51739;DHT22;37815;52.692;6.226;2023-06-26T08:29:19;23.10;81.50
51739;DHT22;37815;52.692;6.226;2023-06-26T08:34:19;23.20;81.30
51739;DHT22;37815;52.692;6.226;2023-06-26T08:39:20;23.10;81.40
51739;DHT22;37815;52.692;6.226;2023-06-26T08:44:21;23.10;81.60
51739;DHT22;37815;52.692;6.226;2023-06-26T08:54:58;23.10;81.00
51739;DHT22;37815;52.692;6.226;2023-06-26T08:59:59;23.10;81.10
51739;DHT22;37815;52.692;6.226;2023-06-26T09:05:00;23.10;81.10
51739;DHT22;37815;52.692;6.226;2023-06-26T09:10:02;23.10;81.10
51739;DHT22;37815;52.692;6.226;2023-06-26T09:15:02;23.10;81.50
51739;DHT22;37815;52.692;6.226;2023-06-26T09:20:04;23.20;81.80
51739;DHT22;37815;52.692;6.226;2023-06-26T09:25:05;23.30;81.80
51739;DHT22;37815;52.692;6.226;2023-06-26T09:30:06;23.10;81.70
51739;DHT22;37815;52.692;6.226;2023-06-26T09:35:07;23.10;81.50
51739;DHT22;37815;52.692;6.226;2023-06-26T09:40:09;23.20;81.40
51739;DHT22;37815;52.692;6.226;2023-06-26T09:45:17;23.20;81.30
51739;DHT22;37815;52.692;6.226;2023-06-26T09:50:22;23.20;81.10
51739;DHT22;37815;52.692;6.226;2023-06-26T09:55:24;23.20;81.10
51739;DHT22;37815;52.692;6.226;2023-06-26T10:00:25;23.20;80.90
51739;DHT22;37815;52.692;6.226;2023-06-26T10:05:26;23.40;80.40
51739;DHT22;37815;52.692;6.226;2023-06-26T10:10:27;23.60;79.80
51739;DHT22;37815;52.692;6.226;2023-06-26T10:15:29;23.60;78.90
51739;DHT22;37815;52.692;6.226;2023-06-26T10:20:30;23.70;78.80
51739;DHT22;37815;52.692;6.226;2023-06-26T10:25:31;23.50;78.90
51739;DHT22;37815;52.692;6.226;2023-06-26T10:30:34;23.50;78.40
51739;DHT22;37815;52.692;6.226;2023-06-26T10:35:43;23.60;78.00
51739;DHT22;37815;52.692;6.226;2023-06-26T10:40:45;23.60;77.30
51739;DHT22;37815;52.692;6.226;2023-06-26T10:45:49;23.70;77.40
51739;DHT22;37815;52.692;6.226;2023-06-26T10:50:54;23.70;77.20
51739;DHT22;37815;52.692;6.226;2023-06-26T10:55:56;23.80;76.80
51739;DHT22;37815;52.692;6.226;2023-06-26T11:06:21;23.70;77.00
51739;DHT22;37815;52.692;6.226;2023-06-26T11:11:22;23.70;77.10
51739;DHT22;37815;52.692;6.226;2023-06-26T11:16:43;23.90;76.70
51739;DHT22;37815;52.692;6.226;2023-06-26T11:21:44;24.00;76.20
51739;DHT22;37815;52.692;6.226;2023-06-26T11:26:45;24.10;75.90
51739;DHT22;37815;52.692;6.226;2023-06-26T11:31:46;24.00;75.70
51739;DHT22;37815;52.692;6.226;2023-06-26T11:36:47;23.90;75.70
51739;DHT22;37815;52.692;6.226;2023-06-26T11:41:49;24.00;75.50
51739;DHT22;37815;52.692;6.226;2023-06-26T11:46:52;24.30;74.70
51739;DHT22;37815;52.692;6.226;2023-06-26T11:51:55;24.50;74.00
51739;DHT22;37815;52.692;6.226;2023-06-26T11:56:57;24.70;73.50
51739;DHT22;37815;52.692;6.226;2023-06-26T12:01:58;24.60;73.40
51739;DHT22;37815;52.692;6.226;2023-06-26T12:06:59;24.60;73.10
51739;DHT22;37815;52.692;6.226;2023-06-26T12:12:01;24.40;73.30
51739;DHT22;37815;52.692;6.226;2023-06-26T12:17:10;24.40;73.60
51739;DHT22;37815;52.692;6.226;2023-06-26T12:22:11;24.40;72.90
51739;DHT22;37815;52.692;6.226;2023-06-26T12:27:17;24.20;73.10
51739;DHT22;37815;52.692;6.226;2023-06-26T12:32:18;24.10;73.30
51739;DHT22;37815;52.692;6.226;2023-06-26T12:37:18;24.00;73.30
51739;DHT22;37815;52.692;6.226;2023-06-26T12:42:20;24.00;73.10
51739;DHT22;37815;52.692;6.226;2023-06-26T12:47:28;24.10;72.80
51739;DHT22;37815;52.692;6.226;2023-06-26T12:52:31;24.40;70.60
51739;DHT22;37815;52.692;6.226;2023-06-26T12:57:31;24.50;71.80
51739;DHT22;37815;52.692;6.226;2023-06-26T13:02:32;24.60;71.30
51739;DHT22;37815;52.692;6.226;2023-06-26T13:07:33;24.60;71.00
51739;DHT22;37815;52.692;6.226;2023-06-26T13:12:33;24.80;70.60
51739;DHT22;37815;52.692;6.226;2023-06-26T13:17:34;25.00;70.00
51739;DHT22;37815;52.692;6.226;2023-06-26T13:22:35;24.90;69.80
51739;DHT22;37815;52.692;6.226;2023-06-26T13:27:35;24.70;70.60
51739;DHT22;37815;52.692;6.226;2023-06-26T13:32:36;24.50;71.10
51739;DHT22;37815;52.692;6.226;2023-06-26T13:37:37;24.50;71.90
51739;DHT22;37815;52.692;6.226;2023-06-26T13:42:37;24.50;71.50
51739;DHT22;37815;52.692;6.226;2023-06-26T13:47:38;24.40;71.40
51739;DHT22;37815;52.692;6.226;2023-06-26T13:52:41;24.40;71.50
51739;DHT22;37815;52.692;6.226;2023-06-26T13:57:42;24.30;71.60
51739;DHT22;37815;52.692;6.226;2023-06-26T14:02:42;24.10;71.50
51739;DHT22;37815;52.692;6.226;2023-06-26T14:07:43;24.10;71.00
51739;DHT22;37815;52.692;6.226;2023-06-26T14:12:44;24.10;71.80
51739;DHT22;37815;52.692;6.226;2023-06-26T14:17:44;24.20;71.40
51739;DHT22;37815;52.692;6.226;2023-06-26T14:22:45;24.20;70.90
51739;DHT22;37815;52.692;6.226;2023-06-26T14:27:45;24.30;70.90
51739;DHT22;37815;52.692;6.226;2023-06-26T14:32:46;24.50;70.40
51739;DHT22;37815;52.692;6.226;2023-06-26T14:37:48;24.70;69.30
51739;DHT22;37815;52.692;6.226;2023-06-26T14:42:48;24.60;69.10
51739;DHT22;37815;52.692;6.226;2023-06-26T14:47:49;24.60;68.50
51739;DHT22;37815;52.692;6.226;2023-06-26T14:52:49;24.90;68.30
51739;DHT22;37815;52.692;6.226;2023-06-26T14:57:50;25.00;67.80
51739;DHT22;37815;52.692;6.226;2023-06-26T15:02:51;25.00;67.80
51739;DHT22;37815;52.692;6.226;2023-06-26T15:07:53;25.00;67.80
51739;DHT22;37815;52.692;6.226;2023-06-26T15:12:54;25.00;67.80
51739;DHT22;37815;52.692;6.226;2023-06-26T15:17:54;24.80;68.30
51739;DHT22;37815;52.692;6.226;2023-06-26T15:22:55;24.50;68.70
51739;DHT22;37815;52.692;6.226;2023-06-26T15:27:56;24.70;68.80
51739;DHT22;37815;52.692;6.226;2023-06-26T15:32:57;24.70;68.70
51739;DHT22;37815;52.692;6.226;2023-06-26T15:37:58;24.70;68.40
51739;DHT22;37815;52.692;6.226;2023-06-26T15:42:58;24.70;68.50
51739;DHT22;37815;52.692;6.226;2023-06-26T15:47:59;24.70;68.30
51739;DHT22;37815;52.692;6.226;2023-06-26T15:53:02;24.80;68.50
51739;DHT22;37815;52.692;6.226;2023-06-26T15:58:03;24.70;67.60
51739;DHT22;37815;52.692;6.226;2023-06-26T16:03:03;24.30;67.90
51739;DHT22;37815;52.692;6.226;2023-06-26T16:08:04;24.10;68.50
51739;DHT22;37815;52.692;6.226;2023-06-26T16:13:05;24.10;68.30
51739;DHT22;37815;52.692;6.226;2023-06-26T16:18:05;24.00;67.80
51739;DHT22;37815;52.692;6.226;2023-06-26T16:23:06;24.00;67.60
51739;DHT22;37815;52.692;6.226;2023-06-26T16:28:07;23.80;67.50
51739;DHT22;37815;52.692;6.226;2023-06-26T16:33:08;23.60;67.50
51739;DHT22;37815;52.692;6.226;2023-06-26T16:38:08;23.50;67.50
51739;DHT22;37815;52.692;6.226;2023-06-26T16:43:12;23.40;67.30
51739;DHT22;37815;52.692;6.226;2023-06-26T16:48:13;23.30;67.30
51739;DHT22;37815;52.692;6.226;2023-06-26T16:53:14;23.20;66.70
51739;DHT22;37815;52.692;6.226;2023-06-26T16:58:14;23.10;66.10
51739;DHT22;37815;52.692;6.226;2023-06-26T17:03:15;23.10;65.40
51739;DHT22;37815;52.692;6.226;2023-06-26T17:08:17;23.00;65.30
51739;DHT22;37815;52.692;6.226;2023-06-26T17:13:18;22.90;65.70
51739;DHT22;37815;52.692;6.226;2023-06-26T17:18:18;22.80;65.80
51739;DHT22;37815;52.692;6.226;2023-06-26T17:23:19;22.70;66.00
51739;DHT22;37815;52.692;6.226;2023-06-26T17:28:19;22.70;66.20
51739;DHT22;37815;52.692;6.226;2023-06-26T17:33:20;22.70;66.20
51739;DHT22;37815;52.692;6.226;2023-06-26T17:38:21;22.50;66.20
51739;DHT22;37815;52.692;6.226;2023-06-26T17:43:21;22.30;66.10
51739;DHT22;37815;52.692;6.226;2023-06-26T17:48:22;22.30;66.40
51739;DHT22;37815;52.692;6.226;2023-06-26T17:53:23;22.20;66.20
51739;DHT22;37815;52.692;6.226;2023-06-26T17:58:23;22.20;66.50
51739;DHT22;37815;52.692;6.226;2023-06-26T18:03:24;22.10;66.70
51739;DHT22;37815;52.692;6.226;2023-06-26T18:08:25;22.10;67.00
51739;DHT22;37815;52.692;6.226;2023-06-26T18:13:25;22.00;67.20
51739;DHT22;37815;52.692;6.226;2023-06-26T18:18:28;22.00;68.20
51739;DHT22;37815;52.692;6.226;2023-06-26T18:23:29;22.00;68.50
51739;DHT22;37815;52.692;6.226;2023-06-26T18:28:29;22.00;68.40
51739;DHT22;37815;52.692;6.226;2023-06-26T18:33:31;21.90;68.20
51739;DHT22;37815;52.692;6.226;2023-06-26T18:38:32;21.80;68.40
51739;DHT22;37815;52.692;6.226;2023-06-26T18:43:33;21.70;68.40
51739;DHT22;37815;52.692;6.226;2023-06-26T18:48:33;21.80;68.40
51739;DHT22;37815;52.692;6.226;2023-06-26T18:53:34;21.70;68.90
51739;DHT22;37815;52.692;6.226;2023-06-26T18:58:36;21.60;68.80
51739;DHT22;37815;52.692;6.226;2023-06-26T19:03:36;21.50;68.80
51739;DHT22;37815;52.692;6.226;2023-06-26T19:08:37;21.10;70.70
51739;DHT22;37815;52.692;6.226;2023-06-26T19:13:37;20.90;71.00
51739;DHT22;37815;52.692;6.226;2023-06-26T19:18:38;21.00;70.90
51739;DHT22;37815;52.692;6.226;2023-06-26T19:23:39;21.00;70.80
51739;DHT22;37815;52.692;6.226;2023-06-26T19:28:40;21.10;71.00
51739;DHT22;37815;52.692;6.226;2023-06-26T19:33:40;21.00;71.50
51739;DHT22;37815;52.692;6.226;2023-06-26T19:38:41;21.00;71.50
51739;DHT22;37815;52.692;6.226;2023-06-26T19:43:41;21.00;72.20
51739;DHT22;37815;52.692;6.226;2023-06-26T19:48:42;20.90;71.60
51739;DHT22;37815;52.692;6.226;2023-06-26T19:53:43;20.90;71.60
51739;DHT22;37815;52.692;6.226;2023-06-26T19:58:44;20.80;71.70
51739;DHT22;37815;52.692;6.226;2023-06-26T20:03:44;20.70;71.80
51739;DHT22;37815;52.692;6.226;2023-06-26T20:08:45;20.70;72.10
51739;DHT22;37815;52.692;6.226;2023-06-26T20:13:45;20.60;72.60
51739;DHT22;37815;52.692;6.226;2023-06-26T20:18:46;20.60;73.10
51739;DHT22;37815;52.692;6.226;2023-06-26T20:23:47;20.60;73.40
51739;DHT22;37815;52.692;6.226;2023-06-26T20:28:47;20.70;73.20
51739;DHT22;37815;52.692;6.226;2023-06-26T20:33:50;20.90;73.00
51739;DHT22;37815;52.692;6.226;2023-06-26T20:38:50;21.10;72.80
51739;DHT22;37815;52.692;6.226;2023-06-26T20:43:51;21.20;72.70
51739;DHT22;37815;52.692;6.226;2023-06-26T20:48:52;21.30;72.50
51739;DHT22;37815;52.692;6.226;2023-06-26T20:53:54;21.40;72.60
51739;DHT22;37815;52.692;6.226;2023-06-26T20:58:55;21.50;72.60
51739;DHT22;37815;52.692;6.226;2023-06-26T21:03:55;21.50;72.50
51739;DHT22;37815;52.692;6.226;2023-06-26T21:08:56;21.50;72.40
51739;DHT22;37815;52.692;6.226;2023-06-26T21:13:56;21.60;72.50
51739;DHT22;37815;52.692;6.226;2023-06-26T21:18:57;21.60;72.40
51739;DHT22;37815;52.692;6.226;2023-06-26T21:23:58;21.60;73.10
51739;DHT22;37815;52.692;6.226;2023-06-26T21:28:58;21.50;72.50
51739;DHT22;37815;52.692;6.226;2023-06-26T21:33:59;21.70;72.50
51739;DHT22;37815;52.692;6.226;2023-06-26T21:39:00;21.70;72.50
51739;DHT22;37815;52.692;6.226;2023-06-26T21:44:01;21.70;72.50
51739;DHT22;37815;52.692;6.226;2023-06-26T21:49:01;21.70;72.50
51739;DHT22;37815;52.692;6.226;2023-06-26T21:54:02;21.70;72.60
51739;DHT22;37815;52.692;6.226;2023-06-26T21:59:03;21.70;72.60
51739;DHT22;37815;52.692;6.226;2023-06-26T22:04:04;21.60;72.50
51739;DHT22;37815;52.692;6.226;2023-06-26T22:09:05;21.60;72.60
51739;DHT22;37815;52.692;6.226;2023-06-26T22:14:06;21.70;72.60
51739;DHT22;37815;52.692;6.226;2023-06-26T22:19:06;21.70;72.50
51739;DHT22;37815;52.692;6.226;2023-06-26T22:24:09;21.60;72.40
51739;DHT22;37815;52.692;6.226;2023-06-26T22:29:09;21.60;73.00
51739;DHT22;37815;52.692;6.226;2023-06-26T22:34:10;21.60;72.40
51739;DHT22;37815;52.692;6.226;2023-06-26T22:39:11;21.60;72.50
51739;DHT22;37815;52.692;6.226;2023-06-26T22:44:11;21.60;72.50
51739;DHT22;37815;52.692;6.226;2023-06-26T22:49:12;21.50;72.50
51739;DHT22;37815;52.692;6.226;2023-06-26T22:54:12;21.50;72.50
51739;DHT22;37815;52.692;6.226;2023-06-26T22:59:13;21.50;72.50
51739;DHT22;37815;52.692;6.226;2023-06-26T23:04:14;21.40;72.50
51739;DHT22;37815;52.692;6.226;2023-06-26T23:09:14;21.40;72.50
51739;DHT22;37815;52.692;6.226;2023-06-26T23:14:15;21.50;72.60
51739;DHT22;37815;52.692;6.226;2023-06-26T23:19:16;21.40;72.50
51739;DHT22;37815;52.692;6.226;2023-06-26T23:24:16;21.40;72.60
51739;DHT22;37815;52.692;6.226;2023-06-26T23:29:17;21.30;72.50
51739;DHT22;37815;52.692;6.226;2023-06-26T23:34:19;21.20;72.50
51739;DHT22;37815;52.692;6.226;2023-06-26T23:39:20;21.30;72.60
51739;DHT22;37815;52.692;6.226;2023-06-26T23:44:20;21.30;72.60
51739;DHT22;37815;52.692;6.226;2023-06-26T23:49:22;21.20;72.60
51739;DHT22;37815;52.692;6.226;2023-06-26T23:54:22;21.20;72.60
51739;DHT22;37815;52.692;6.226;2023-06-26T23:59:23;21.20;72.70
